sensor_id;sensor_type;location;lat;lon;timestamp;P1;durP1;ratioP1;P2;durP2;ratioP2
20890;SDS011;10605;52.968;8.844;2023-04-16T00:02:09;38.40;;;26.13;;
20890;SDS011;10605;52.968;8.844;2023-04-16T00:04:35;35.47;;;25.45;;
20890;SDS011;10605;52.968;8.844;2023-04-16T00:07:01;33.70;;;24.52;;
20890;SDS011;10605;52.968;8.844;2023-04-16T00:09:27;34.88;;;26.35;;
20890;SDS011;10605;52.968;8.844;2023-04-16T00:11:52;33.35;;;25.67;;
20890;SDS011;10605;52.968;8.844;2023-04-16T00:14:18;32.38;;;24.75;;
20890;SDS011;10605;52.968;8.844;2023-04-16T00:16:44;40.60;;;25.63;;
20890;SDS011;10605;52.968;8.844;2023-04-16T00:19:09;31.85;;;24.60;;
20890;SDS011;10605;52.968;8.844;2023-04-16T00:21:35;34.30;;;24.35;;
20890;SDS011;10605;52.968;8.844;2023-04-16T00:24:01;35.35;;;25.25;;
20890;SDS011;10605;52.968;8.844;2023-04-16T00:26:26;34.13;;;25.40;;
20890;SDS011;10605;52.968;8.844;2023-04-16T00:28:52;35.13;;;24.92;;
20890;SDS011;10605;52.968;8.844;2023-04-16T00:31:24;36.22;;;25.05;;
20890;SDS011;10605;52.968;8.844;2023-04-16T00:33:53;37.63;;;26.02;;
20890;SDS011;10605;52.968;8.844;2023-04-16T00:36:20;34.05;;;25.13;;
20890;SDS011;10605;52.968;8.844;2023-04-16T00:38:47;31.23;;;26.02;;
20890;SDS011;10605;52.968;8.844;2023-04-16T00:41:12;36.90;;;26.15;;
20890;SDS011;10605;52.968;8.844;2023-04-16T00:43:38;35.97;;;26.65;;
20890;SDS011;10605;52.968;8.844;2023-04-16T00:46:04;38.72;;;25.90;;
20890;SDS011;10605;52.968;8.844;2023-04-16T00:48:33;34.28;;;26.67;;
20890;SDS011;10605;52.968;8.844;2023-04-16T00:51:03;33.53;;;25.17;;
20890;SDS011;10605;52.968;8.844;2023-04-16T00:53:30;33.53;;;25.98;;
20890;SDS011;10605;52.968;8.844;2023-04-16T00:55:56;35.10;;;26.65;;
20890;SDS011;10605;52.968;8.844;2023-04-16T00:58:23;41.17;;;27.02;;
20890;SDS011;10605;52.968;8.844;2023-04-16T01:00:49;36.33;;;26.90;;
20890;SDS011;10605;52.968;8.844;2023-04-16T01:03:15;37.38;;;26.65;;
20890;SDS011;10605;52.968;8.844;2023-04-16T01:05:41;36.63;;;26.27;;
20890;SDS011;10605;52.968;8.844;2023-04-16T01:08:14;36.17;;;26.58;;
20890;SDS011;10605;52.968;8.844;2023-04-16T01:10:41;36.35;;;26.42;;
20890;SDS011;10605;52.968;8.844;2023-04-16T01:13:08;37.95;;;26.67;;
20890;SDS011;10605;52.968;8.844;2023-04-16T01:15:34;38.90;;;27.00;;
20890;SDS011;10605;52.968;8.844;2023-04-16T01:17:59;36.88;;;27.08;;
20890;SDS011;10605;52.968;8.844;2023-04-16T01:20:25;37.15;;;26.13;;
20890;SDS011;10605;52.968;8.844;2023-04-16T01:22:51;39.33;;;27.13;;
20890;SDS011;10605;52.968;8.844;2023-04-16T01:25:16;43.95;;;27.42;;
20890;SDS011;10605;52.968;8.844;2023-04-16T01:27:42;37.20;;;26.17;;
20890;SDS011;10605;52.968;8.844;2023-04-16T01:30:07;35.65;;;27.42;;
20890;SDS011;10605;52.968;8.844;2023-04-16T01:32:33;46.25;;;28.35;;
20890;SDS011;10605;52.968;8.844;2023-04-16T01:34:59;45.17;;;27.10;;
20890;SDS011;10605;52.968;8.844;2023-04-16T01:37:25;37.60;;;27.27;;
20890;SDS011;10605;52.968;8.844;2023-04-16T01:39:51;35.78;;;28.63;;
20890;SDS011;10605;52.968;8.844;2023-04-16T01:42:16;38.25;;;28.60;;
20890;SDS011;10605;52.968;8.844;2023-04-16T01:44:42;45.63;;;29.58;;
20890;SDS011;10605;52.968;8.844;2023-04-16T01:47:07;43.15;;;29.52;;
20890;SDS011;10605;52.968;8.844;2023-04-16T01:49:33;40.42;;;29.10;;
20890;SDS011;10605;52.968;8.844;2023-04-16T01:51:59;43.28;;;29.48;;
20890;SDS011;10605;52.968;8.844;2023-04-16T01:54:25;38.38;;;29.33;;
20890;SDS011;10605;52.968;8.844;2023-04-16T01:56:51;37.50;;;29.48;;
20890;SDS011;10605;52.968;8.844;2023-04-16T01:59:16;37.28;;;28.50;;
20890;SDS011;10605;52.968;8.844;2023-04-16T02:01:42;41.58;;;30.55;;
20890;SDS011;10605;52.968;8.844;2023-04-16T02:04:08;48.22;;;30.30;;
20890;SDS011;10605;52.968;8.844;2023-04-16T02:06:34;43.88;;;31.13;;
20890;SDS011;10605;52.968;8.844;2023-04-16T02:09:00;45.70;;;31.20;;
20890;SDS011;10605;52.968;8.844;2023-04-16T02:11:25;45.67;;;30.98;;
20890;SDS011;10605;52.968;8.844;2023-04-16T02:13:51;42.10;;;30.73;;
20890;SDS011;10605;52.968;8.844;2023-04-16T02:16:17;42.33;;;31.55;;
20890;SDS011;10605;52.968;8.844;2023-04-16T02:18:43;44.50;;;31.77;;
20890;SDS011;10605;52.968;8.844;2023-04-16T02:21:08;45.42;;;32.05;;
20890;SDS011;10605;52.968;8.844;2023-04-16T02:23:34;45.85;;;32.13;;
20890;SDS011;10605;52.968;8.844;2023-04-16T02:26:01;51.78;;;32.08;;
20890;SDS011;10605;52.968;8.844;2023-04-16T02:28:27;53.55;;;32.50;;
20890;SDS011;10605;52.968;8.844;2023-04-16T02:30:53;43.58;;;31.90;;
20890;SDS011;10605;52.968;8.844;2023-04-16T02:33:18;43.38;;;32.65;;
20890;SDS011;10605;52.968;8.844;2023-04-16T02:35:44;43.10;;;31.27;;
20890;SDS011;10605;52.968;8.844;2023-04-16T02:38:10;44.53;;;31.00;;
20890;SDS011;10605;52.968;8.844;2023-04-16T02:40:36;48.05;;;33.20;;
20890;SDS011;10605;52.968;8.844;2023-04-16T02:43:01;45.58;;;33.05;;
20890;SDS011;10605;52.968;8.844;2023-04-16T02:45:27;50.83;;;32.85;;
20890;SDS011;10605;52.968;8.844;2023-04-16T02:47:55;50.78;;;32.72;;
20890;SDS011;10605;52.968;8.844;2023-04-16T02:50:21;49.28;;;32.00;;
20890;SDS011;10605;52.968;8.844;2023-04-16T02:52:46;44.88;;;31.70;;
20890;SDS011;10605;52.968;8.844;2023-04-16T02:55:12;45.75;;;31.63;;
20890;SDS011;10605;52.968;8.844;2023-04-16T02:57:38;45.95;;;32.38;;
20890;SDS011;10605;52.968;8.844;2023-04-16T03:00:04;40.28;;;30.15;;
20890;SDS011;10605;52.968;8.844;2023-04-16T03:02:30;45.65;;;31.42;;
20890;SDS011;10605;52.968;8.844;2023-04-16T03:04:55;46.47;;;32.08;;
20890;SDS011;10605;52.968;8.844;2023-04-16T03:07:21;42.88;;;31.88;;
20890;SDS011;10605;52.968;8.844;2023-04-16T03:09:47;48.63;;;33.35;;
20890;SDS011;10605;52.968;8.844;2023-04-16T03:12:12;46.05;;;31.58;;
20890;SDS011;10605;52.968;8.844;2023-04-16T03:14:38;45.35;;;30.17;;
20890;SDS011;10605;52.968;8.844;2023-04-16T03:17:03;48.55;;;32.33;;
20890;SDS011;10605;52.968;8.844;2023-04-16T03:19:29;43.13;;;31.23;;
20890;SDS011;10605;52.968;8.844;2023-04-16T03:21:55;43.33;;;31.00;;
20890;SDS011;10605;52.968;8.844;2023-04-16T03:24:21;44.38;;;30.90;;
20890;SDS011;10605;52.968;8.844;2023-04-16T03:26:46;43.45;;;30.80;;
20890;SDS011;10605;52.968;8.844;2023-04-16T03:29:12;45.47;;;31.73;;
20890;SDS011;10605;52.968;8.844;2023-04-16T03:31:37;41.83;;;32.25;;
20890;SDS011;10605;52.968;8.844;2023-04-16T03:34:03;46.13;;;31.25;;
20890;SDS011;10605;52.968;8.844;2023-04-16T03:36:29;44.50;;;30.42;;
20890;SDS011;10605;52.968;8.844;2023-04-16T03:38:55;44.08;;;31.42;;
20890;SDS011;10605;52.968;8.844;2023-04-16T03:41:20;44.22;;;30.70;;
20890;SDS011;10605;52.968;8.844;2023-04-16T03:43:46;40.58;;;30.65;;
20890;SDS011;10605;52.968;8.844;2023-04-16T03:46:11;38.15;;;29.23;;
20890;SDS011;10605;52.968;8.844;2023-04-16T03:48:37;43.15;;;30.67;;
20890;SDS011;10605;52.968;8.844;2023-04-16T03:51:03;41.30;;;29.90;;
20890;SDS011;10605;52.968;8.844;2023-04-16T03:53:28;45.75;;;31.83;;
20890;SDS011;10605;52.968;8.844;2023-04-16T03:55:54;48.17;;;31.95;;
20890;SDS011;10605;52.968;8.844;2023-04-16T03:58:20;49.40;;;30.48;;
20890;SDS011;10605;52.968;8.844;2023-04-16T04:00:45;42.20;;;30.20;;
20890;SDS011;10605;52.968;8.844;2023-04-16T04:03:11;39.20;;;30.25;;
20890;SDS011;10605;52.968;8.844;2023-04-16T04:05:40;47.85;;;31.63;;
20890;SDS011;10605;52.968;8.844;2023-04-16T04:08:06;46.65;;;32.10;;
20890;SDS011;10605;52.968;8.844;2023-04-16T04:10:35;41.92;;;29.63;;
20890;SDS011;10605;52.968;8.844;2023-04-16T04:13:02;43.88;;;31.35;;
20890;SDS011;10605;52.968;8.844;2023-04-16T04:15:29;45.30;;;30.98;;
20890;SDS011;10605;52.968;8.844;2023-04-16T04:17:54;43.38;;;30.50;;
20890;SDS011;10605;52.968;8.844;2023-04-16T04:20:20;47.05;;;31.30;;
20890;SDS011;10605;52.968;8.844;2023-04-16T04:22:46;42.63;;;31.23;;
20890;SDS011;10605;52.968;8.844;2023-04-16T04:25:12;48.97;;;31.10;;
20890;SDS011;10605;52.968;8.844;2023-04-16T04:27:38;50.00;;;31.90;;
20890;SDS011;10605;52.968;8.844;2023-04-16T04:30:04;47.33;;;32.97;;
20890;SDS011;10605;52.968;8.844;2023-04-16T04:32:30;43.70;;;31.30;;
20890;SDS011;10605;52.968;8.844;2023-04-16T04:34:56;47.88;;;30.75;;
20890;SDS011;10605;52.968;8.844;2023-04-16T04:37:23;44.33;;;29.83;;
20890;SDS011;10605;52.968;8.844;2023-04-16T04:39:49;42.92;;;31.42;;
20890;SDS011;10605;52.968;8.844;2023-04-16T04:42:18;42.90;;;30.27;;
20890;SDS011;10605;52.968;8.844;2023-04-16T04:44:44;45.15;;;30.55;;
20890;SDS011;10605;52.968;8.844;2023-04-16T04:47:10;42.95;;;31.13;;
20890;SDS011;10605;52.968;8.844;2023-04-16T04:49:36;42.13;;;31.27;;
20890;SDS011;10605;52.968;8.844;2023-04-16T04:52:02;41.38;;;30.10;;
20890;SDS011;10605;52.968;8.844;2023-04-16T04:54:29;49.22;;;30.27;;
20890;SDS011;10605;52.968;8.844;2023-04-16T04:56:55;40.47;;;29.63;;
20890;SDS011;10605;52.968;8.844;2023-04-16T04:59:21;42.83;;;30.80;;
20890;SDS011;10605;52.968;8.844;2023-04-16T05:01:47;46.42;;;29.75;;
20890;SDS011;10605;52.968;8.844;2023-04-16T05:04:13;49.20;;;30.60;;
20890;SDS011;10605;52.968;8.844;2023-04-16T05:06:39;43.55;;;30.40;;
20890;SDS011;10605;52.968;8.844;2023-04-16T05:09:04;41.03;;;29.50;;
20890;SDS011;10605;52.968;8.844;2023-04-16T05:11:32;38.38;;;28.30;;
20890;SDS011;10605;52.968;8.844;2023-04-16T05:13:58;37.70;;;28.23;;
20890;SDS011;10605;52.968;8.844;2023-04-16T05:16:23;37.50;;;28.20;;
20890;SDS011;10605;52.968;8.844;2023-04-16T05:18:49;43.17;;;29.13;;
20890;SDS011;10605;52.968;8.844;2023-04-16T05:21:15;39.47;;;28.13;;
20890;SDS011;10605;52.968;8.844;2023-04-16T05:23:40;42.42;;;28.00;;
20890;SDS011;10605;52.968;8.844;2023-04-16T05:26:06;42.42;;;27.85;;
20890;SDS011;10605;52.968;8.844;2023-04-16T05:28:32;41.67;;;27.33;;
20890;SDS011;10605;52.968;8.844;2023-04-16T05:30:57;41.05;;;28.40;;
20890;SDS011;10605;52.968;8.844;2023-04-16T05:33:23;38.13;;;26.83;;
20890;SDS011;10605;52.968;8.844;2023-04-16T05:35:49;43.30;;;27.85;;
20890;SDS011;10605;52.968;8.844;2023-04-16T05:38:15;37.95;;;26.73;;
20890;SDS011;10605;52.968;8.844;2023-04-16T05:40:40;38.55;;;27.45;;
20890;SDS011;10605;52.968;8.844;2023-04-16T05:43:06;39.08;;;25.88;;
20890;SDS011;10605;52.968;8.844;2023-04-16T05:45:31;34.05;;;25.70;;
20890;SDS011;10605;52.968;8.844;2023-04-16T05:48:03;37.70;;;25.85;;
20890;SDS011;10605;52.968;8.844;2023-04-16T05:50:29;32.67;;;25.02;;
20890;SDS011;10605;52.968;8.844;2023-04-16T05:52:55;35.13;;;24.45;;
20890;SDS011;10605;52.968;8.844;2023-04-16T05:55:21;33.72;;;24.88;;
20890;SDS011;10605;52.968;8.844;2023-04-16T05:57:46;36.30;;;26.98;;
20890;SDS011;10605;52.968;8.844;2023-04-16T06:00:12;33.90;;;23.77;;
20890;SDS011;10605;52.968;8.844;2023-04-16T06:02:38;34.17;;;24.58;;
20890;SDS011;10605;52.968;8.844;2023-04-16T06:05:04;36.63;;;24.10;;
20890;SDS011;10605;52.968;8.844;2023-04-16T06:07:29;36.45;;;24.52;;
20890;SDS011;10605;52.968;8.844;2023-04-16T06:09:55;34.45;;;25.13;;
20890;SDS011;10605;52.968;8.844;2023-04-16T06:12:21;32.17;;;23.80;;
20890;SDS011;10605;52.968;8.844;2023-04-16T06:14:46;32.97;;;25.00;;
20890;SDS011;10605;52.968;8.844;2023-04-16T06:17:12;31.45;;;23.98;;
20890;SDS011;10605;52.968;8.844;2023-04-16T06:19:38;32.53;;;23.27;;
20890;SDS011;10605;52.968;8.844;2023-04-16T06:22:03;33.10;;;24.02;;
20890;SDS011;10605;52.968;8.844;2023-04-16T06:24:30;35.45;;;23.90;;
20890;SDS011;10605;52.968;8.844;2023-04-16T06:26:56;34.88;;;24.20;;
20890;SDS011;10605;52.968;8.844;2023-04-16T06:29:22;31.88;;;22.63;;
20890;SDS011;10605;52.968;8.844;2023-04-16T06:31:47;28.40;;;21.30;;
20890;SDS011;10605;52.968;8.844;2023-04-16T06:34:13;34.33;;;23.08;;
20890;SDS011;10605;52.968;8.844;2023-04-16T06:36:39;29.38;;;23.33;;
20890;SDS011;10605;52.968;8.844;2023-04-16T06:39:05;27.35;;;21.35;;
20890;SDS011;10605;52.968;8.844;2023-04-16T06:41:30;28.95;;;22.33;;
20890;SDS011;10605;52.968;8.844;2023-04-16T06:43:56;36.13;;;22.23;;
20890;SDS011;10605;52.968;8.844;2023-04-16T06:46:22;30.30;;;21.65;;
20890;SDS011;10605;52.968;8.844;2023-04-16T06:48:48;29.02;;;21.40;;
20890;SDS011;10605;52.968;8.844;2023-04-16T06:51:16;29.85;;;21.95;;
20890;SDS011;10605;52.968;8.844;2023-04-16T06:53:45;26.55;;;19.80;;
20890;SDS011;10605;52.968;8.844;2023-04-16T06:56:10;30.48;;;21.33;;
20890;SDS011;10605;52.968;8.844;2023-04-16T06:58:36;29.58;;;20.63;;
20890;SDS011;10605;52.968;8.844;2023-04-16T07:01:02;28.52;;;20.67;;
20890;SDS011;10605;52.968;8.844;2023-04-16T07:03:28;26.77;;;20.25;;
20890;SDS011;10605;52.968;8.844;2023-04-16T07:05:54;31.25;;;21.15;;
20890;SDS011;10605;52.968;8.844;2023-04-16T07:08:20;27.05;;;20.50;;
20890;SDS011;10605;52.968;8.844;2023-04-16T07:10:46;26.10;;;19.90;;
20890;SDS011;10605;52.968;8.844;2023-04-16T07:13:11;31.42;;;20.77;;
20890;SDS011;10605;52.968;8.844;2023-04-16T07:15:37;27.23;;;20.63;;
20890;SDS011;10605;52.968;8.844;2023-04-16T07:18:03;36.42;;;20.85;;
20890;SDS011;10605;52.968;8.844;2023-04-16T07:20:29;31.67;;;20.88;;
20890;SDS011;10605;52.968;8.844;2023-04-16T07:22:54;26.08;;;20.35;;
20890;SDS011;10605;52.968;8.844;2023-04-16T07:25:21;28.90;;;21.83;;
20890;SDS011;10605;52.968;8.844;2023-04-16T07:27:47;26.38;;;20.17;;
20890;SDS011;10605;52.968;8.844;2023-04-16T07:30:25;24.92;;;19.75;;
20890;SDS011;10605;52.968;8.844;2023-04-16T07:32:56;29.02;;;21.23;;
20890;SDS011;10605;52.968;8.844;2023-04-16T07:35:22;29.20;;;21.30;;
20890;SDS011;10605;52.968;8.844;2023-04-16T07:37:48;28.35;;;20.42;;
20890;SDS011;10605;52.968;8.844;2023-04-16T07:40:13;33.17;;;21.23;;
20890;SDS011;10605;52.968;8.844;2023-04-16T07:42:39;26.75;;;20.23;;
20890;SDS011;10605;52.968;8.844;2023-04-16T07:45:05;30.17;;;20.08;;
20890;SDS011;10605;52.968;8.844;2023-04-16T07:47:31;30.48;;;19.90;;
20890;SDS011;10605;52.968;8.844;2023-04-16T07:49:57;28.60;;;19.88;;
20890;SDS011;10605;52.968;8.844;2023-04-16T07:52:28;29.20;;;19.38;;
20890;SDS011;10605;52.968;8.844;2023-04-16T07:54:54;29.77;;;19.48;;
20890;SDS011;10605;52.968;8.844;2023-04-16T07:57:19;26.42;;;19.27;;
20890;SDS011;10605;52.968;8.844;2023-04-16T07:59:48;27.88;;;19.88;;
20890;SDS011;10605;52.968;8.844;2023-04-16T08:02:14;25.52;;;18.85;;
20890;SDS011;10605;52.968;8.844;2023-04-16T08:04:43;24.13;;;18.67;;
20890;SDS011;10605;52.968;8.844;2023-04-16T08:07:08;31.98;;;18.73;;
20890;SDS011;10605;52.968;8.844;2023-04-16T08:09:34;28.77;;;18.70;;
20890;SDS011;10605;52.968;8.844;2023-04-16T08:12:00;30.45;;;19.80;;
20890;SDS011;10605;52.968;8.844;2023-04-16T08:14:26;31.73;;;18.92;;
20890;SDS011;10605;52.968;8.844;2023-04-16T08:16:52;34.33;;;19.02;;
20890;SDS011;10605;52.968;8.844;2023-04-16T08:19:18;26.10;;;18.17;;
20890;SDS011;10605;52.968;8.844;2023-04-16T08:21:44;26.17;;;18.58;;
20890;SDS011;10605;52.968;8.844;2023-04-16T08:24:09;24.58;;;18.85;;
20890;SDS011;10605;52.968;8.844;2023-04-16T08:26:35;26.05;;;17.92;;
20890;SDS011;10605;52.968;8.844;2023-04-16T08:29:01;25.17;;;19.13;;
20890;SDS011;10605;52.968;8.844;2023-04-16T08:31:27;23.52;;;18.13;;
20890;SDS011;10605;52.968;8.844;2023-04-16T08:33:52;22.83;;;17.67;;
20890;SDS011;10605;52.968;8.844;2023-04-16T08:36:18;28.58;;;18.38;;
20890;SDS011;10605;52.968;8.844;2023-04-16T08:38:44;24.15;;;16.88;;
20890;SDS011;10605;52.968;8.844;2023-04-16T08:41:11;28.63;;;17.23;;
20890;SDS011;10605;52.968;8.844;2023-04-16T08:43:37;22.35;;;17.52;;
20890;SDS011;10605;52.968;8.844;2023-04-16T08:46:12;23.40;;;17.63;;
20890;SDS011;10605;52.968;8.844;2023-04-16T08:48:40;19.55;;;16.90;;
20890;SDS011;10605;52.968;8.844;2023-04-16T08:51:08;26.42;;;17.55;;
20890;SDS011;10605;52.968;8.844;2023-04-16T08:53:35;21.35;;;17.98;;
20890;SDS011;10605;52.968;8.844;2023-04-16T08:56:12;25.85;;;17.33;;
20890;SDS011;10605;52.968;8.844;2023-04-16T08:58:39;21.33;;;16.27;;
20890;SDS011;10605;52.968;8.844;2023-04-16T09:01:05;20.02;;;16.67;;
20890;SDS011;10605;52.968;8.844;2023-04-16T09:03:34;20.33;;;16.38;;
20890;SDS011;10605;52.968;8.844;2023-04-16T09:06:01;21.02;;;16.58;;
20890;SDS011;10605;52.968;8.844;2023-04-16T09:08:28;23.05;;;15.13;;
20890;SDS011;10605;52.968;8.844;2023-04-16T09:10:54;24.17;;;16.58;;
20890;SDS011;10605;52.968;8.844;2023-04-16T09:13:21;20.85;;;16.20;;
20890;SDS011;10605;52.968;8.844;2023-04-16T09:15:50;26.90;;;16.42;;
20890;SDS011;10605;52.968;8.844;2023-04-16T09:18:21;21.42;;;16.83;;
20890;SDS011;10605;52.968;8.844;2023-04-16T09:20:50;22.08;;;16.83;;
20890;SDS011;10605;52.968;8.844;2023-04-16T09:23:16;21.08;;;16.73;;
20890;SDS011;10605;52.968;8.844;2023-04-16T09:25:42;20.83;;;15.60;;
20890;SDS011;10605;52.968;8.844;2023-04-16T09:28:08;20.83;;;15.95;;
20890;SDS011;10605;52.968;8.844;2023-04-16T09:30:35;21.63;;;16.45;;
20890;SDS011;10605;52.968;8.844;2023-04-16T09:33:15;29.95;;;16.60;;
20890;SDS011;10605;52.968;8.844;2023-04-16T09:35:55;22.50;;;15.45;;
20890;SDS011;10605;52.968;8.844;2023-04-16T09:38:21;22.17;;;14.90;;
20890;SDS011;10605;52.968;8.844;2023-04-16T09:40:47;19.35;;;15.68;;
20890;SDS011;10605;52.968;8.844;2023-04-16T09:43:31;23.02;;;15.38;;
20890;SDS011;10605;52.968;8.844;2023-04-16T09:45:57;22.85;;;15.80;;
20890;SDS011;10605;52.968;8.844;2023-04-16T09:48:29;17.75;;;15.52;;
20890;SDS011;10605;52.968;8.844;2023-04-16T09:50:57;19.45;;;15.48;;
20890;SDS011;10605;52.968;8.844;2023-04-16T09:55:58;19.27;;;15.70;;
20890;SDS011;10605;52.968;8.844;2023-04-16T09:58:26;18.33;;;15.10;;
20890;SDS011;10605;52.968;8.844;2023-04-16T10:01:08;18.10;;;14.32;;
20890;SDS011;10605;52.968;8.844;2023-04-16T10:03:36;21.10;;;16.05;;
20890;SDS011;10605;52.968;8.844;2023-04-16T10:06:06;21.42;;;15.32;;
20890;SDS011;10605;52.968;8.844;2023-04-16T10:08:43;19.42;;;15.07;;
20890;SDS011;10605;52.968;8.844;2023-04-16T10:11:09;18.42;;;14.88;;
20890;SDS011;10605;52.968;8.844;2023-04-16T10:13:35;22.45;;;14.75;;
20890;SDS011;10605;52.968;8.844;2023-04-16T10:16:01;19.30;;;14.95;;
20890;SDS011;10605;52.968;8.844;2023-04-16T10:18:28;20.30;;;14.77;;
20890;SDS011;10605;52.968;8.844;2023-04-16T10:20:54;24.77;;;15.35;;
20890;SDS011;10605;52.968;8.844;2023-04-16T10:23:21;17.63;;;14.57;;
20890;SDS011;10605;52.968;8.844;2023-04-16T10:25:48;23.80;;;16.17;;
20890;SDS011;10605;52.968;8.844;2023-04-16T10:28:14;22.85;;;15.27;;
20890;SDS011;10605;52.968;8.844;2023-04-16T10:30:42;19.60;;;15.48;;
20890;SDS011;10605;52.968;8.844;2023-04-16T10:33:17;23.67;;;15.40;;
20890;SDS011;10605;52.968;8.844;2023-04-16T10:35:45;19.75;;;14.75;;
20890;SDS011;10605;52.968;8.844;2023-04-16T10:38:20;23.35;;;14.77;;
20890;SDS011;10605;52.968;8.844;2023-04-16T10:40:48;19.73;;;15.43;;
20890;SDS011;10605;52.968;8.844;2023-04-16T10:43:17;20.88;;;15.70;;
20890;SDS011;10605;52.968;8.844;2023-04-16T10:45:44;20.38;;;14.98;;
20890;SDS011;10605;52.968;8.844;2023-04-16T10:48:11;18.67;;;15.32;;
20890;SDS011;10605;52.968;8.844;2023-04-16T10:50:38;23.10;;;15.45;;
20890;SDS011;10605;52.968;8.844;2023-04-16T10:53:24;21.55;;;15.20;;
20890;SDS011;10605;52.968;8.844;2023-04-16T10:58:30;18.17;;;14.20;;
20890;SDS011;10605;52.968;8.844;2023-04-16T11:00:59;19.92;;;14.10;;
20890;SDS011;10605;52.968;8.844;2023-04-16T11:03:30;21.08;;;15.13;;
20890;SDS011;10605;52.968;8.844;2023-04-16T11:08:39;17.77;;;13.75;;
20890;SDS011;10605;52.968;8.844;2023-04-16T11:11:08;20.08;;;14.48;;
20890;SDS011;10605;52.968;8.844;2023-04-16T11:13:35;16.55;;;14.25;;
20890;SDS011;10605;52.968;8.844;2023-04-16T11:16:02;21.13;;;13.77;;
20890;SDS011;10605;52.968;8.844;2023-04-16T11:18:30;18.30;;;14.43;;
20890;SDS011;10605;52.968;8.844;2023-04-16T11:20:56;18.50;;;14.35;;
20890;SDS011;10605;52.968;8.844;2023-04-16T11:23:22;17.00;;;14.38;;
20890;SDS011;10605;52.968;8.844;2023-04-16T11:25:48;16.23;;;13.65;;
20890;SDS011;10605;52.968;8.844;2023-04-16T11:28:30;19.80;;;15.15;;
20890;SDS011;10605;52.968;8.844;2023-04-16T11:30:57;17.27;;;14.40;;
20890;SDS011;10605;52.968;8.844;2023-04-16T11:33:23;22.63;;;14.65;;
20890;SDS011;10605;52.968;8.844;2023-04-16T11:35:56;17.25;;;13.32;;
20890;SDS011;10605;52.968;8.844;2023-04-16T11:38:32;19.15;;;15.13;;
20890;SDS011;10605;52.968;8.844;2023-04-16T11:41:00;17.92;;;13.93;;
20890;SDS011;10605;52.968;8.844;2023-04-16T11:43:26;18.75;;;14.18;;
20890;SDS011;10605;52.968;8.844;2023-04-16T11:45:56;18.33;;;14.30;;
20890;SDS011;10605;52.968;8.844;2023-04-16T11:48:44;15.95;;;14.32;;
20890;SDS011;10605;52.968;8.844;2023-04-16T11:51:14;15.95;;;14.23;;
20890;SDS011;10605;52.968;8.844;2023-04-16T11:53:47;17.85;;;14.18;;
20890;SDS011;10605;52.968;8.844;2023-04-16T11:56:27;17.95;;;14.82;;
20890;SDS011;10605;52.968;8.844;2023-04-16T11:59:10;16.67;;;14.07;;
20890;SDS011;10605;52.968;8.844;2023-04-16T12:01:37;19.92;;;15.65;;
20890;SDS011;10605;52.968;8.844;2023-04-16T12:04:05;16.60;;;14.80;;
20890;SDS011;10605;52.968;8.844;2023-04-16T12:06:32;16.63;;;14.80;;
20890;SDS011;10605;52.968;8.844;2023-04-16T12:08:58;20.75;;;15.27;;
20890;SDS011;10605;52.968;8.844;2023-04-16T12:11:38;20.25;;;14.40;;
20890;SDS011;10605;52.968;8.844;2023-04-16T12:14:10;16.15;;;14.45;;
20890;SDS011;10605;52.968;8.844;2023-04-16T12:16:36;22.30;;;15.93;;
20890;SDS011;10605;52.968;8.844;2023-04-16T12:19:03;19.92;;;14.77;;
20890;SDS011;10605;52.968;8.844;2023-04-16T12:21:42;17.77;;;14.73;;
20890;SDS011;10605;52.968;8.844;2023-04-16T12:24:13;18.45;;;15.32;;
20890;SDS011;10605;52.968;8.844;2023-04-16T12:26:51;19.63;;;14.32;;
20890;SDS011;10605;52.968;8.844;2023-04-16T12:29:26;18.08;;;15.07;;
20890;SDS011;10605;52.968;8.844;2023-04-16T12:31:53;19.77;;;15.45;;
20890;SDS011;10605;52.968;8.844;2023-04-16T12:34:19;17.30;;;15.50;;
20890;SDS011;10605;52.968;8.844;2023-04-16T12:36:46;17.08;;;15.20;;
20890;SDS011;10605;52.968;8.844;2023-04-16T12:39:14;23.60;;;15.32;;
20890;SDS011;10605;52.968;8.844;2023-04-16T12:41:41;19.30;;;15.88;;
20890;SDS011;10605;52.968;8.844;2023-04-16T12:44:08;18.02;;;15.88;;
20890;SDS011;10605;52.968;8.844;2023-04-16T12:46:39;18.40;;;15.38;;
20890;SDS011;10605;52.968;8.844;2023-04-16T12:49:06;22.25;;;15.65;;
20890;SDS011;10605;52.968;8.844;2023-04-16T12:51:33;21.90;;;15.93;;
20890;SDS011;10605;52.968;8.844;2023-04-16T12:54:00;23.00;;;15.90;;
20890;SDS011;10605;52.968;8.844;2023-04-16T12:56:27;21.58;;;16.23;;
20890;SDS011;10605;52.968;8.844;2023-04-16T12:58:53;19.33;;;16.23;;
20890;SDS011;10605;52.968;8.844;2023-04-16T13:01:19;21.33;;;17.27;;
20890;SDS011;10605;52.968;8.844;2023-04-16T13:03:45;24.98;;;15.82;;
20890;SDS011;10605;52.968;8.844;2023-04-16T13:06:12;23.10;;;17.08;;
20890;SDS011;10605;52.968;8.844;2023-04-16T13:08:39;18.67;;;15.80;;
20890;SDS011;10605;52.968;8.844;2023-04-16T13:11:05;22.20;;;17.35;;
20890;SDS011;10605;52.968;8.844;2023-04-16T13:13:32;23.48;;;17.25;;
20890;SDS011;10605;52.968;8.844;2023-04-16T13:15:58;24.77;;;16.83;;
20890;SDS011;10605;52.968;8.844;2023-04-16T13:18:24;23.95;;;16.25;;
20890;SDS011;10605;52.968;8.844;2023-04-16T13:20:51;23.05;;;17.10;;
20890;SDS011;10605;52.968;8.844;2023-04-16T13:23:18;22.42;;;17.60;;
20890;SDS011;10605;52.968;8.844;2023-04-16T13:25:44;23.33;;;17.67;;
20890;SDS011;10605;52.968;8.844;2023-04-16T13:28:10;19.55;;;16.92;;
20890;SDS011;10605;52.968;8.844;2023-04-16T13:30:36;21.88;;;18.08;;
20890;SDS011;10605;52.968;8.844;2023-04-16T13:33:02;20.08;;;16.88;;
20890;SDS011;10605;52.968;8.844;2023-04-16T13:39:03;25.17;;;17.55;;
20890;SDS011;10605;52.968;8.844;2023-04-16T13:41:34;24.73;;;17.48;;
20890;SDS011;10605;52.968;8.844;2023-04-16T13:44:00;26.45;;;19.33;;
20890;SDS011;10605;52.968;8.844;2023-04-16T13:46:26;24.63;;;17.15;;
20890;SDS011;10605;52.968;8.844;2023-04-16T13:48:53;21.65;;;17.83;;
20890;SDS011;10605;52.968;8.844;2023-04-16T13:51:44;21.75;;;17.80;;
20890;SDS011;10605;52.968;8.844;2023-04-16T13:54:14;22.38;;;18.15;;
20890;SDS011;10605;52.968;8.844;2023-04-16T13:56:57;28.33;;;18.50;;
20890;SDS011;10605;52.968;8.844;2023-04-16T14:00:01;21.23;;;18.38;;
20890;SDS011;10605;52.968;8.844;2023-04-16T14:02:27;20.52;;;17.25;;
20890;SDS011;10605;52.968;8.844;2023-04-16T14:04:53;19.65;;;16.73;;
20890;SDS011;10605;52.968;8.844;2023-04-16T14:07:18;27.38;;;18.50;;
20890;SDS011;10605;52.968;8.844;2023-04-16T14:09:46;23.45;;;18.85;;
20890;SDS011;10605;52.968;8.844;2023-04-16T14:12:12;25.63;;;20.05;;
20890;SDS011;10605;52.968;8.844;2023-04-16T14:14:38;24.58;;;19.33;;
20890;SDS011;10605;52.968;8.844;2023-04-16T14:17:05;25.02;;;18.40;;
20890;SDS011;10605;52.968;8.844;2023-04-16T14:19:31;23.92;;;18.42;;
20890;SDS011;10605;52.968;8.844;2023-04-16T14:21:57;20.52;;;18.33;;
20890;SDS011;10605;52.968;8.844;2023-04-16T14:24:22;21.67;;;17.88;;
20890;SDS011;10605;52.968;8.844;2023-04-16T14:26:48;22.20;;;18.70;;
20890;SDS011;10605;52.968;8.844;2023-04-16T14:29:14;25.70;;;18.85;;
20890;SDS011;10605;52.968;8.844;2023-04-16T14:31:40;25.80;;;19.08;;
20890;SDS011;10605;52.968;8.844;2023-04-16T14:34:05;29.73;;;19.13;;